METAR AND TAF INFORMATION
METAR FOR LEMH
ADDS - METARS form results

(2344 UTC 23 February 2019)
Data provider http://aviationweather.gov/metar/data/
 
METAR text: LEMH 232330Z AUTO 05010KT 9999 FEW014/// 11/08 Q1028
Conditions at: LEMH (MAHON/MENORCA IS, ES) observed 2330 UTC 23 February 2019
Temperature: 11.0°C (52°F)
Dewpoint: 8.0°C (46°F) [RH = 82%]
Pressure (altimeter): 30.35 inches Hg (1028.0 mb)
Winds: from the NE (50 degrees) at 12 MPH (10 knots; 5.1 m/s)
Visibility: 6 or more miles (10+ km)
Ceiling: at least 12,000 feet AGL
Clouds: few clouds at 1400 feet AGL
Weather: no significant weather observed at this time

METAR text: LEMH 232300Z AUTO 05009KT 9999 FEW012/// 11/09 Q1028
Conditions at: LEMH (MAHON/MENORCA IS, ES) observed 2300 UTC 23 February 2019
Temperature: 11.0°C (52°F)
Dewpoint: 9.0°C (48°F) [RH = 87%]
Pressure (altimeter): 30.35 inches Hg (1028.0 mb)
Winds: from the NE (50 degrees) at 10 MPH (9 knots; 4.6 m/s)
Visibility: 6 or more miles (10+ km)
Ceiling: at least 12,000 feet AGL
Clouds: few clouds at 1200 feet AGL
Weather: no significant weather observed at this time

Forecast for: LEMH (MAHON/MENORCA IS, ES)
Text: TAF LEMH 232000Z 2321/2421 04009KT 9999 FEW020 TX15/2412Z TN08/2406Z
Forecast period: 2100 UTC 23 February 2019 to 2100 UTC 24 February 2019
Forecast type: FROM: standard forecast or significant change
Winds: from the NE (40 degrees) at 10 MPH (9 knots; 4.6 m/s)
Visibility: 6 or more miles 10+ km)
Ceiling: at least 12,000 feet AGL
Clouds: few clouds at 2000 feet AGL
Weather: no significant weather forecast for this period
Text: TEMPO 2407/2417 04016G27KT
Forecast period: 0700 to 1700 UTC 24 February 2019
Forecast type: TEMPORARY: The following changes expected for less than half the time period
Winds: from the NE (40 degrees) at 18 MPH (16 knots; 8.2 m/s)
gusting to 31 MPH (27 knots; 13.9 m/s)
Visibility: missing
Ceiling: unknown
Clouds: missing
Weather: no significant weather forecast for this period

 AIRPORT MAP

 RUNWAY INFORMATION
Runway 01L Runway length 7710 ft Runway width 148 ft
Runway elevation 277 ft Runway displaced threshold 0 ft Runway heading 9
Runway 19R Runway length 7710 ft Runway width 148 ft
Runway elevation 298 ft Runway displaced threshold 0 ft Runway heading 189
Runway 01R Runway length 6890 ft Runway width 148 ft
Runway elevation 272 ft Runway displaced threshold 0 ft Runway heading 9
Runway 19L Runway length 6890 ft Runway width 148 ft
Runway elevation 298 ft Runway displaced threshold 0 ft Runway heading 189

 AIRPORT FREQUENCIES
Type APP Name APP Frequency 119.65 MHZ
Type ATIS Name ATIS Frequency 112.6 MHZ
Type GND Name GND Frequency 121.75 MHZ
Type TWR Name TWR Frequency 118.2 MHZ

 AIRPORT NEAR NAVIGATION AIDS
Type VOR-DME Name Menorca Frequency 112600 KHZ
Type NDB Name Menorca Frequency 344 KHZ



Powered by Virtual Airlines Manager [v2.6.2]